createdAt,value
2022-08-07T00:01:44.256Z,46.37
2022-08-07T00:04:15.810Z,42.75
2022-08-07T00:06:51.178Z,43.88
2022-08-07T00:09:22.292Z,45.81
2022-08-07T00:11:55.941Z,45.82
2022-08-07T00:14:30.956Z,43.04
2022-08-07T00:17:02.765Z,46.24
2022-08-07T00:19:34.325Z,52.33
2022-08-07T00:22:24.848Z,45.31
2022-08-07T00:25:11.127Z,45.02
2022-08-07T00:27:52.395Z,45.88
2022-08-07T00:30:27.604Z,45.93
2022-08-07T00:33:00.930Z,47.44
2022-08-07T00:35:30.874Z,46.60
2022-08-07T00:38:04.228Z,45.46
2022-08-07T00:40:39.272Z,45.43
2022-08-07T00:43:59.858Z,48.40
2022-08-07T00:46:01.872Z,45.19
2022-08-07T00:48:32.349Z,46.59
2022-08-07T00:51:02.634Z,46.74
2022-08-07T00:53:39.084Z,45.62
2022-08-07T00:56:18.937Z,44.80
2022-08-07T00:58:49.596Z,44.03
2022-08-07T01:01:18.799Z,44.20
2022-08-07T01:03:56.313Z,45.42
2022-08-07T01:06:30.175Z,45.63
2022-08-07T01:09:01.049Z,44.39
2022-08-07T01:12:09.226Z,44.92
2022-08-07T01:14:21.369Z,44.73
2022-08-07T01:16:57.422Z,44.30
2022-08-07T01:19:32.625Z,45.37
2022-08-07T01:22:03.090Z,44.59
2022-08-07T01:24:37.186Z,44.91
2022-08-07T01:27:17.704Z,44.23
2022-08-07T01:29:50.758Z,43.98
2022-08-07T01:32:22.444Z,44.14
2022-08-07T01:34:52.684Z,44.28
2022-08-07T01:37:21.815Z,45.34
2022-08-07T01:39:53.143Z,46.23
2022-08-07T01:42:58.674Z,46.25
2022-08-07T01:45:36.892Z,46.04
2022-08-07T01:48:20.483Z,46.19
2022-08-07T01:51:24.207Z,47.04
2022-08-07T01:54:08.988Z,46.80
2022-08-07T01:56:55.291Z,45.30
2022-08-07T01:59:47.275Z,45.51
2022-08-07T02:03:11.626Z,45.06
2022-08-07T02:05:43.155Z,45.57
2022-08-07T02:08:20.867Z,45.13
2022-08-07T02:10:54.868Z,47.81
2022-08-07T02:13:57.533Z,46.63
2022-08-07T02:16:28.556Z,45.25
2022-08-07T02:20:05.586Z,46.37
2022-08-07T02:21:59.602Z,46.48
2022-08-07T02:24:30.154Z,47.29
2022-08-07T02:27:02.719Z,46.40
2022-08-07T02:29:36.845Z,47.25
2022-08-07T02:32:19.152Z,46.43
2022-08-07T02:34:53.248Z,48.69
2022-08-07T02:37:26.904Z,48.13
2022-08-07T02:40:12.081Z,46.91
2022-08-07T02:42:48.953Z,46.59
2022-08-07T02:46:00.420Z,45.91
2022-08-07T02:48:10.231Z,48.07
2022-08-07T02:50:48.763Z,47.58
2022-08-07T02:53:38.482Z,47.19
2022-08-07T02:56:20.979Z,48.27
2022-08-07T02:58:54.201Z,47.94
2022-08-07T03:01:35.387Z,47.80
2022-08-07T03:04:13.054Z,47.50
2022-08-07T03:06:45.965Z,46.90
2022-08-07T03:09:43.758Z,47.36
2022-08-07T03:12:22.193Z,46.08
2022-08-07T03:14:53.290Z,46.44
2022-08-07T03:17:23.164Z,47.25
2022-08-07T03:19:55.046Z,52.21
2022-08-07T03:22:30.491Z,49.93
2022-08-07T03:25:00.855Z,47.29
2022-08-07T03:27:58.810Z,46.81
2022-08-07T03:30:25.967Z,46.36
2022-08-07T03:32:58.833Z,47.36
2022-08-07T03:35:43.989Z,48.12
2022-08-07T03:38:21.372Z,49.79
2022-08-07T03:41:00.506Z,49.07
2022-08-07T03:43:32.473Z,49.10
2022-08-07T03:46:04.424Z,48.85
2022-08-07T03:49:03.005Z,50.02
2022-08-07T03:51:47.786Z,49.12
2022-08-07T03:54:35.641Z,49.98
2022-08-07T03:58:35.293Z,48.89
2022-08-07T04:00:04.130Z,48.13
2022-08-07T04:02:47.454Z,48.22
2022-08-07T04:05:39.616Z,50.53
2022-08-07T04:08:16.135Z,49.01
2022-08-07T04:10:54.186Z,47.64
2022-08-07T04:14:10.006Z,47.74
2022-08-07T04:16:31.106Z,50.58
2022-08-07T04:19:14.767Z,47.61
2022-08-07T04:21:48.066Z,47.62
2022-08-07T04:24:34.086Z,47.88
2022-08-07T04:27:20.822Z,48.13
2022-08-07T04:29:58.474Z,47.99
2022-08-07T04:32:37.332Z,47.63
2022-08-07T04:35:11.235Z,47.44
2022-08-07T04:38:00.871Z,46.92
2022-08-07T04:40:29.956Z,46.90
2022-08-07T04:43:01.712Z,46.81
2022-08-07T04:46:29.278Z,47.01
2022-08-07T04:49:37.714Z,48.35
2022-08-07T04:52:59.738Z,48.93
2022-08-07T04:58:14.032Z,49.24
2022-08-07T05:00:11.678Z,47.86
2022-08-07T05:02:54.823Z,48.42
2022-08-07T05:06:16.499Z,48.42
2022-08-07T05:09:15.060Z,49.38
2022-08-07T05:11:58.667Z,49.52
2022-08-07T05:14:58.982Z,49.34
2022-08-07T05:18:00.647Z,49.06
2022-08-07T05:20:32.863Z,49.82
2022-08-07T05:23:15.827Z,48.64
2022-08-07T05:26:10.477Z,49.53
2022-08-07T05:28:35.889Z,49.67
2022-08-07T05:31:05.584Z,48.99
2022-08-07T05:33:38.725Z,48.29
2022-08-07T05:36:12.038Z,48.83
2022-08-07T05:39:00.908Z,48.31
2022-08-07T05:42:00.240Z,52.82
2022-08-07T05:44:29.700Z,56.69
2022-08-07T05:47:02.009Z,54.43
2022-08-07T05:49:52.017Z,52.94
2022-08-07T05:52:32.348Z,53.88
2022-08-07T05:55:07.051Z,53.11
2022-08-07T05:57:42.350Z,55.21
2022-08-07T06:08:33.220Z,51.73
2022-08-07T06:11:09.166Z,53.71
2022-08-07T06:14:11.731Z,53.75
2022-08-07T06:16:33.442Z,55.93
2022-08-07T06:19:06.513Z,56.27
2022-08-07T06:22:14.587Z,56.56
2022-08-07T06:24:45.475Z,55.56
2022-08-07T06:27:59.868Z,55.84
2022-08-07T06:30:32.009Z,55.32
2022-08-07T06:33:04.956Z,56.42
2022-08-07T06:35:45.588Z,56.46
2022-08-07T06:38:19.859Z,57.08
2022-08-07T06:40:54.609Z,54.86
2022-08-07T06:43:26.716Z,54.33
2022-08-07T06:46:31.041Z,54.75
2022-08-07T06:49:05.035Z,55.36
2022-08-07T06:51:49.661Z,55.08
2022-08-07T06:55:29.791Z,54.62
2022-08-07T06:57:09.696Z,54.39
2022-08-07T07:00:12.030Z,54.30
2022-08-07T07:02:53.354Z,55.37
2022-08-07T07:06:03.163Z,54.80
2022-08-07T07:08:18.177Z,54.40
2022-08-07T07:10:56.427Z,54.28
2022-08-07T07:13:56.508Z,54.75
2022-08-07T07:16:45.379Z,55.11
2022-08-07T07:19:55.776Z,53.77
2022-08-07T07:22:36.972Z,55.23
2022-08-07T07:26:31.669Z,54.58
2022-08-07T07:29:23.469Z,54.56
2022-08-07T07:31:44.290Z,53.96
2022-08-07T07:34:20.447Z,52.44
2022-08-07T07:36:53.834Z,51.93
2022-08-07T07:39:25.669Z,51.82
2022-08-07T07:42:13.760Z,51.07
2022-08-07T07:44:49.461Z,50.67
2022-08-07T07:47:23.874Z,50.09
2022-08-07T07:50:34.645Z,50.02
2022-08-07T07:52:47.103Z,50.03
2022-08-07T07:55:19.060Z,50.90
2022-08-07T07:57:53.235Z,49.97
2022-08-07T08:00:31.447Z,49.63
2022-08-07T08:03:16.399Z,49.03
2022-08-07T08:05:55.295Z,49.34
2022-08-07T08:08:34.654Z,48.62
2022-08-07T08:11:07.988Z,49.38
2022-08-07T08:13:52.885Z,48.76
2022-08-07T08:16:39.170Z,48.44
2022-08-07T08:20:15.699Z,48.97
2022-08-07T08:22:21.757Z,47.72
2022-08-07T08:25:26.849Z,47.28
2022-08-07T08:28:23.906Z,46.07
2022-08-07T08:31:14.743Z,46.02
2022-08-07T08:33:49.573Z,45.55
2022-08-07T08:36:30.575Z,45.61
2022-08-07T08:39:02.211Z,45.77
2022-08-07T08:41:58.519Z,45.77
2022-08-07T08:44:47.383Z,44.91
2022-08-07T08:47:31.372Z,43.70
2022-08-07T08:50:28.584Z,42.83
2022-08-07T08:53:33.871Z,42.54
2022-08-07T08:56:10.717Z,40.43
2022-08-07T08:58:50.633Z,41.98
2022-08-07T09:01:59.480Z,42.15
2022-08-07T09:04:55.615Z,39.79
2022-08-07T09:07:57.606Z,41.26
2022-08-07T09:10:44.965Z,41.46
2022-08-07T09:13:40.055Z,39.60
2022-08-07T09:17:01.830Z,38.33
2022-08-07T09:20:34.652Z,39.17
2022-08-07T09:24:33.192Z,39.21
2022-08-07T09:26:47.795Z,40.08
2022-08-07T09:30:08.529Z,39.49
2022-08-07T09:33:05.231Z,40.14
2022-08-07T09:36:12.355Z,40.48
2022-08-07T09:39:55.488Z,39.58
2022-08-07T09:43:09.270Z,37.33
2022-08-07T09:47:27.512Z,37.04
2022-08-07T09:50:02.605Z,36.56
2022-08-07T09:52:52.142Z,33.71
2022-08-07T09:55:29.757Z,35.73
2022-08-07T09:58:41.489Z,33.49
2022-08-07T10:01:51.904Z,29.56
2022-08-07T10:04:47.732Z,31.36
2022-08-07T10:08:01.071Z,32.00
2022-08-07T10:12:01.427Z,28.92
2022-08-07T10:14:39.785Z,27.53
2022-08-07T10:18:02.666Z,29.39
2022-08-07T10:21:19.736Z,25.66
2022-08-07T10:24:28.797Z,25.91
2022-08-07T10:27:46.598Z,23.81
2022-08-07T10:30:50.517Z,24.70
2022-08-07T10:34:18.447Z,25.79
2022-08-07T10:38:34.982Z,24.47
2022-08-07T10:41:01.266Z,26.67
2022-08-07T10:43:43.164Z,25.83
2022-08-07T10:46:20.417Z,22.54
2022-08-07T10:49:16.062Z,22.90
2022-08-07T10:52:14.130Z,24.05
2022-08-07T10:55:01.674Z,23.30
2022-08-07T10:57:56.777Z,21.02
2022-08-07T11:00:39.673Z,24.17
2022-08-07T11:03:23.832Z,22.02
2022-08-07T11:06:18.171Z,22.01
2022-08-07T11:09:03.872Z,21.36
2022-08-07T11:12:03.375Z,20.15
2022-08-07T11:15:00.702Z,20.00
2022-08-07T11:17:54.500Z,19.52
2022-08-07T11:20:49.049Z,21.43
2022-08-07T11:24:11.520Z,21.33
2022-08-07T11:27:33.703Z,20.28
2022-08-07T11:30:19.297Z,19.02
2022-08-07T11:33:14.999Z,21.03
2022-08-07T11:36:14.763Z,20.62
2022-08-07T11:39:39.582Z,19.41
2022-08-07T11:42:30.415Z,19.08
2022-08-07T11:45:36.129Z,19.43
2022-08-07T11:49:27.731Z,18.08
2022-08-07T11:51:59.463Z,17.96
2022-08-07T11:56:13.969Z,17.87
2022-08-07T11:58:21.829Z,19.08
2022-08-07T12:01:06.669Z,18.13
2022-08-07T12:04:09.374Z,17.17
2022-08-07T12:07:27.134Z,16.66
2022-08-07T12:11:08.040Z,17.44
2022-08-07T12:14:31.787Z,17.81
2022-08-07T12:17:10.390Z,15.03
2022-08-07T12:20:29.671Z,16.57
2022-08-07T12:24:05.981Z,16.76
2022-08-07T12:26:51.125Z,17.43
2022-08-07T12:29:37.730Z,17.69
2022-08-07T12:32:22.063Z,16.88
2022-08-07T12:34:55.612Z,15.71
2022-08-07T12:37:28.336Z,14.89
2022-08-07T12:40:46.301Z,15.20
2022-08-07T12:44:03.357Z,16.24
2022-08-07T12:46:32.349Z,15.81
2022-08-07T12:49:25.609Z,16.65
2022-08-07T12:52:18.191Z,17.07
2022-08-07T12:55:03.946Z,18.40
2022-08-07T12:58:02.182Z,17.13
2022-08-07T13:00:54.603Z,16.48
2022-08-07T13:04:02.432Z,16.23
2022-08-07T13:07:05.550Z,16.77
2022-08-07T13:10:28.873Z,17.33
2022-08-07T13:13:47.924Z,16.23
2022-08-07T13:16:37.815Z,14.42
2022-08-07T13:19:34.953Z,15.27
2022-08-07T13:22:40.674Z,15.23
2022-08-07T13:25:29.015Z,14.50
2022-08-07T13:28:18.660Z,15.56
2022-08-07T13:31:46.268Z,14.37
2022-08-07T13:34:51.381Z,14.71
2022-08-07T13:37:58.533Z,15.06
2022-08-07T13:40:58.069Z,14.00
2022-08-07T13:43:30.186Z,13.62
2022-08-07T13:46:11.378Z,14.18
2022-08-07T13:49:02.150Z,13.90
2022-08-07T13:52:04.771Z,14.01
2022-08-07T13:54:31.184Z,13.06
2022-08-07T13:57:11.555Z,13.21
2022-08-07T13:59:57.987Z,13.01
2022-08-07T14:02:32.160Z,13.19
2022-08-07T14:05:21.999Z,13.59
2022-08-07T14:08:01.005Z,13.27
2022-08-07T14:10:42.048Z,13.52
2022-08-07T14:13:18.880Z,13.43
2022-08-07T14:16:03.492Z,13.59
2022-08-07T14:18:56.971Z,12.78
2022-08-07T14:22:00.967Z,12.79
2022-08-07T14:24:43.338Z,12.65
2022-08-07T14:28:09.199Z,12.24
2022-08-07T14:30:11.928Z,12.19
2022-08-07T14:32:45.966Z,12.95
2022-08-07T14:35:44.975Z,12.33
2022-08-07T14:38:31.439Z,12.52
2022-08-07T14:41:14.620Z,12.80
2022-08-07T14:43:58.834Z,12.58
2022-08-07T14:46:38.302Z,13.22
2022-08-07T14:49:57.479Z,12.50
2022-08-07T14:52:27.547Z,12.92
2022-08-07T14:54:58.746Z,13.63
2022-08-07T14:57:54.980Z,14.39
2022-08-07T15:00:29.740Z,15.30
2022-08-07T15:03:19.554Z,15.54
2022-08-07T15:05:54.140Z,15.87
2022-08-07T15:08:54.742Z,17.03
2022-08-07T15:11:54.080Z,17.78
2022-08-07T15:17:19.081Z,18.12
2022-08-07T15:20:33.363Z,18.46
2022-08-07T15:22:55.181Z,19.08
2022-08-07T15:28:32.077Z,19.95
2022-08-07T15:31:12.183Z,20.10
2022-08-07T15:33:42.760Z,20.59
2022-08-07T15:36:12.691Z,20.75
2022-08-07T15:42:46.331Z,20.54
2022-08-07T15:48:02.390Z,19.95
2022-08-07T15:51:02.067Z,18.60
2022-08-07T15:53:52.619Z,18.56
2022-08-07T15:56:37.502Z,18.84
2022-08-07T15:59:17.501Z,18.78
2022-08-07T16:02:02.474Z,19.34
2022-08-07T16:04:34.633Z,19.38
2022-08-07T16:08:32.327Z,19.79
2022-08-07T16:10:22.126Z,20.01
2022-08-07T16:13:57.469Z,20.26
2022-08-07T16:16:48.222Z,20.72
2022-08-07T16:19:58.652Z,21.33
2022-08-07T16:22:58.844Z,21.50
2022-08-07T16:26:01.997Z,21.75
2022-08-07T16:30:07.683Z,22.20
2022-08-07T16:32:34.810Z,23.09
2022-08-07T16:35:51.884Z,22.92
2022-08-07T16:39:01.668Z,23.67
2022-08-07T16:42:27.130Z,23.70
2022-08-07T16:46:47.583Z,23.80
2022-08-07T16:49:04.252Z,24.24
2022-08-07T16:52:35.401Z,23.88
2022-08-07T16:55:50.453Z,23.63
2022-08-07T16:59:15.084Z,23.29
2022-08-07T17:02:52.351Z,23.53
2022-08-07T17:06:02.139Z,23.05
2022-08-07T17:08:10.987Z,22.73
2022-08-07T17:10:54.727Z,22.53
2022-08-07T17:14:17.580Z,22.23
2022-08-07T17:16:56.103Z,22.19
2022-08-07T17:20:03.497Z,21.94
2022-08-07T17:23:00.570Z,21.13
2022-08-07T17:25:52.565Z,21.36
2022-08-07T17:28:53.499Z,21.29
2022-08-07T17:32:30.328Z,21.56
2022-08-07T17:35:51.603Z,20.59
2022-08-07T17:38:35.089Z,21.45
2022-08-07T17:42:03.720Z,21.13
2022-08-07T17:44:50.773Z,20.71
2022-08-07T17:47:41.851Z,20.94
2022-08-07T17:50:30.590Z,21.33
2022-08-07T17:53:55.705Z,20.92
2022-08-07T17:56:26.119Z,20.97
2022-08-07T17:59:01.860Z,20.51
2022-08-07T18:02:09.219Z,21.10
2022-08-07T18:06:03.234Z,21.61
2022-08-07T18:09:02.046Z,21.95
2022-08-07T18:12:17.433Z,21.85
2022-08-07T18:15:11.813Z,22.12
2022-08-07T18:18:44.715Z,22.26
2022-08-07T18:21:38.336Z,22.06
2022-08-07T18:24:45.576Z,22.48
2022-08-07T18:27:56.742Z,22.58
2022-08-07T18:30:49.738Z,23.21
2022-08-07T18:34:35.839Z,23.42
2022-08-07T18:37:09.406Z,23.63
2022-08-07T18:40:42.632Z,23.99
2022-08-07T18:43:49.774Z,24.27
2022-08-07T18:46:29.324Z,24.49
2022-08-07T18:50:19.730Z,24.47
2022-08-07T18:52:54.003Z,24.71
2022-08-07T18:55:57.407Z,25.02
2022-08-07T18:59:47.007Z,25.59
2022-08-07T19:02:42.449Z,25.89
2022-08-07T19:06:03.557Z,25.76
2022-08-07T19:08:35.537Z,26.51
2022-08-07T19:11:15.474Z,28.14
2022-08-07T19:14:17.319Z,28.37
2022-08-07T19:17:07.921Z,27.76
2022-08-07T19:20:30.217Z,29.70
2022-08-07T19:23:58.287Z,31.00
2022-08-07T19:27:09.240Z,32.66
2022-08-07T19:31:00.299Z,29.24
2022-08-07T19:32:44.248Z,28.81
2022-08-07T19:35:25.646Z,30.65
2022-08-07T19:37:59.675Z,28.88
2022-08-07T19:40:36.221Z,31.80
2022-08-07T19:43:21.651Z,28.94
2022-08-07T19:46:10.069Z,28.82
2022-08-07T19:48:53.738Z,29.04
2022-08-07T19:51:52.343Z,29.42
2022-08-07T19:54:33.334Z,28.92
2022-08-07T19:58:02.675Z,28.94
2022-08-07T20:00:10.134Z,29.58
2022-08-07T20:02:52.048Z,29.43
2022-08-07T20:05:30.153Z,30.11
2022-08-07T20:08:02.578Z,30.58
2022-08-07T20:10:55.195Z,30.78
2022-08-07T20:13:42.956Z,29.96
2022-08-07T20:16:35.869Z,29.79
2022-08-07T20:19:09.908Z,30.01
2022-08-07T20:21:47.820Z,30.35
2022-08-07T20:24:30.006Z,30.42
2022-08-07T20:27:07.490Z,30.91
2022-08-07T20:29:58.341Z,30.46
2022-08-07T20:32:44.035Z,30.56
2022-08-07T20:35:17.780Z,30.42
2022-08-07T20:37:58.318Z,31.98
2022-08-07T20:40:34.621Z,32.32
2022-08-07T20:43:14.733Z,32.40
2022-08-07T20:46:26.874Z,35.84
2022-08-07T20:48:58.118Z,31.55
2022-08-07T20:51:35.803Z,31.79
2022-08-07T20:54:11.820Z,31.00
2022-08-07T20:56:45.922Z,31.67
2022-08-07T21:00:04.926Z,32.38
2022-08-07T21:02:39.068Z,32.22
2022-08-07T21:05:18.649Z,33.71
2022-08-07T21:08:15.813Z,33.99
2022-08-07T21:10:45.103Z,32.42
2022-08-07T21:13:24.670Z,31.98
2022-08-07T21:16:12.481Z,33.94
2022-08-07T21:18:46.254Z,32.79
2022-08-07T21:21:21.374Z,34.42
2022-08-07T21:24:15.282Z,35.47
2022-08-07T21:26:51.278Z,40.77
2022-08-07T21:29:33.401Z,41.03
2022-08-07T21:32:46.732Z,36.75
2022-08-07T21:35:18.512Z,41.41
2022-08-07T21:38:21.653Z,41.03
2022-08-07T21:40:59.094Z,40.05
2022-08-07T21:44:29.983Z,40.87
2022-08-07T21:47:20.513Z,37.47
2022-08-07T21:50:17.529Z,37.96
2022-08-07T21:53:29.127Z,37.26
2022-08-07T21:56:37.819Z,39.20
2022-08-07T22:00:11.339Z,39.42
2022-08-07T22:03:03.562Z,38.99
2022-08-07T22:05:49.915Z,41.85
2022-08-07T22:08:28.588Z,39.30
2022-08-07T22:11:04.904Z,40.09
2022-08-07T22:13:50.964Z,40.42
2022-08-07T22:16:41.851Z,38.38
2022-08-07T22:19:30.088Z,37.24
2022-08-07T22:22:28.973Z,38.78
2022-08-07T22:25:28.555Z,37.93
2022-08-07T22:28:30.816Z,37.54
2022-08-07T22:31:55.969Z,39.09
2022-08-07T22:34:54.588Z,38.29
2022-08-07T22:38:04.572Z,37.33
2022-08-07T22:40:57.190Z,37.75
2022-08-07T22:43:41.715Z,37.71
2022-08-07T22:47:04.132Z,38.63
2022-08-07T22:50:33.181Z,38.62
2022-08-07T22:54:08.866Z,39.18
2022-08-07T22:56:57.788Z,39.71
2022-08-07T22:59:52.761Z,39.99
2022-08-07T23:02:51.238Z,39.38
2022-08-07T23:06:14.979Z,39.67
2022-08-07T23:10:06.337Z,39.03
2022-08-07T23:13:02.884Z,39.75
2022-08-07T23:16:06.956Z,41.42
2022-08-07T23:19:47.750Z,39.13
2022-08-07T23:22:58.312Z,39.78
2022-08-07T23:25:58.215Z,38.69
2022-08-07T23:29:17.136Z,38.78
2022-08-07T23:34:21.946Z,38.84
2022-08-07T23:36:04.299Z,38.58
2022-08-07T23:39:22.448Z,38.16
2022-08-07T23:42:21.520Z,38.29
2022-08-07T23:45:33.275Z,39.78
2022-08-07T23:48:34.109Z,40.50
2022-08-07T23:52:59.824Z,41.83
2022-08-07T23:54:52.804Z,45.19
2022-08-07T23:57:47.931Z,41.36
